Time;durP1;ratioP1;P1;durP2;ratioP2;P2;SDS_P1;SDS_P2;PMS_P1;PMS_P2;Temp;Humidity;BMP_temperature;BMP_pressure;BME280_temperature;BME280_humidity;BME280_pressure;Samples;Min_cycle;Max_cycle;Signal;HPM_P1;HPM_P2
2021/10/20 00:01:47;;;;;;;16.38;6.20;;;16.00;63.40;;;;;;6224929;28;20034;-71
2021/10/20 00:04:48;;;;;;;12.40;6.22;;;16.00;63.40;;;;;;6224457;28;20042;-71
2021/10/20 00:07:49;;;;;;;15.27;6.20;;;15.90;63.60;;;;;;6207320;28;20029;-73
2021/10/20 00:10:50;;;;;;;11.68;5.75;;;15.90;63.70;;;;;;6224123;28;20046;-72
2021/10/20 00:13:51;;;;;;;14.93;5.13;;;15.80;63.90;;;;;;6221658;28;20355;-72
2021/10/20 00:16:52;;;;;;;13.00;6.03;;;15.80;63.90;;;;;;6207907;28;20042;-72
2021/10/20 00:19:58;;;;;;;14.82;6.18;;;15.80;64.10;;;;;;6223688;28;20074;-73
2021/10/20 00:22:59;;;;;;;14.57;5.82;;;15.70;64.20;;;;;;6223034;28;20034;-72
2021/10/20 00:26:01;;;;;;;13.23;6.00;;;15.70;64.30;;;;;;6223833;28;20030;-73
2021/10/20 00:29:02;;;;;;;9.48;5.30;;;15.60;64.30;;;;;;6223446;28;20037;-72
2021/10/20 00:32:03;;;;;;;13.07;5.57;;;15.60;64.30;;;;;;6227256;28;20049;-72
2021/10/20 00:35:05;;;;;;;10.05;5.07;;;15.60;64.30;;;;;;6223575;28;20494;-72
2021/10/20 00:38:06;;;;;;;11.85;6.38;;;15.60;64.30;;;;;;6223236;28;20523;-73
2021/10/20 00:41:07;;;;;;;12.13;5.72;;;15.50;64.30;;;;;;6224605;28;20099;-72
2021/10/20 00:44:08;;;;;;;8.88;5.28;;;15.50;64.50;;;;;;6222936;28;20045;-72
2021/10/20 00:47:09;;;;;;;10.68;5.55;;;15.50;64.70;;;;;;6223182;28;20038;-72
2021/10/20 00:50:13;;;;;;;11.77;5.32;;;15.40;64.70;;;;;;6223269;28;20029;-72
2021/10/20 00:53:14;;;;;;;19.42;5.78;;;15.40;64.80;;;;;;6224185;28;20523;-72
2021/10/20 00:56:15;;;;;;;13.40;5.90;;;15.40;64.80;;;;;;6223501;28;20087;-72
2021/10/20 00:59:16;;;;;;;12.80;4.70;;;15.40;64.80;;;;;;6219678;28;20113;-72
2021/10/20 01:02:17;;;;;;;9.48;5.43;;;15.40;64.70;;;;;;6222776;28;20050;-72
2021/10/20 01:05:18;;;;;;;16.23;5.18;;;15.40;64.70;;;;;;6206873;28;20465;-72
2021/10/20 01:08:19;;;;;;;11.63;6.20;;;15.40;64.50;;;;;;6224157;28;20410;-72
2021/10/20 01:11:20;;;;;;;11.90;4.88;;;15.40;64.40;;;;;;6224186;28;20033;-72
2021/10/20 01:14:23;;;;;;;13.50;5.22;;;15.40;64.40;;;;;;6240214;28;20387;-73
2021/10/20 01:17:24;;;;;;;9.98;5.75;;;15.40;64.40;;;;;;6222660;28;20463;-72
2021/10/20 01:20:29;;;;;;;9.82;4.70;;;15.30;64.50;;;;;;6222632;28;20180;-72
2021/10/20 01:23:31;;;;;;;10.52;5.18;;;15.30;64.60;;;;;;6222771;28;20400;-72
2021/10/20 01:26:32;;;;;;;8.32;4.90;;;15.20;64.50;;;;;;6223747;28;20030;-73
2021/10/20 01:29:33;;;;;;;10.70;4.68;;;15.20;64.70;;;;;;6206225;28;20034;-72
2021/10/20 01:32:34;;;;;;;9.02;4.85;;;15.20;64.70;;;;;;6220488;28;20062;-72
2021/10/20 01:35:37;;;;;;;10.43;5.00;;;15.20;64.70;;;;;;6222318;28;20478;-72
2021/10/20 01:38:39;;;;;;;9.52;4.60;;;15.10;64.60;;;;;;6238664;28;20046;-72
2021/10/20 01:41:40;;;;;;;11.05;5.15;;;15.10;64.50;;;;;;6223350;28;20041;-72
2021/10/20 01:44:42;;;;;;;11.48;4.32;;;15.10;64.60;;;;;;6221889;28;20455;-73
2021/10/20 01:47:43;;;;;;;8.57;4.63;;;15.10;64.60;;;;;;6223490;28;20054;-73
2021/10/20 01:50:44;;;;;;;11.35;4.38;;;15.10;64.70;;;;;;6239936;28;20050;-73
2021/10/20 01:53:45;;;;;;;8.38;4.78;;;15.00;64.60;;;;;;6223313;28;20430;-72
2021/10/20 01:56:47;;;;;;;9.07;4.43;;;15.00;64.60;;;;;;6223889;28;20041;-72
2021/10/20 01:59:48;;;;;;;7.40;4.05;;;15.00;64.60;;;;;;6222983;28;20521;-72
2021/10/20 02:02:49;;;;;;;8.02;4.18;;;15.00;64.40;;;;;;6227756;28;20030;-72
2021/10/20 02:05:53;;;;;;;8.00;4.07;;;15.00;64.30;;;;;;6220985;28;20143;-73
2021/10/20 02:08:54;;;;;;;8.27;4.30;;;15.00;64.20;;;;;;6224495;28;20388;-71
2021/10/20 02:11:55;;;;;;;6.90;3.63;;;14.90;64.20;;;;;;6227715;28;20033;-72
2021/10/20 02:14:56;;;;;;;8.77;4.22;;;14.90;64.10;;;;;;6229034;28;20042;-72
2021/10/20 02:17:57;;;;;;;11.75;4.95;;;14.90;63.90;;;;;;6228965;28;20137;-72
2021/10/20 02:20:58;;;;;;;11.23;4.18;;;14.90;63.80;;;;;;6227799;28;20141;-71
2021/10/20 02:23:59;;;;;;;10.88;5.20;;;14.90;63.80;;;;;;6227401;28;20041;-72
2021/10/20 02:27:00;;;;;;;9.20;4.93;;;14.90;63.70;;;;;;6229028;28;20076;-72
2021/10/20 02:30:02;;;;;;;10.07;3.95;;;14.90;63.70;;;;;;6228595;28;20041;-72
2021/10/20 02:33:04;;;;;;;9.88;4.78;;;14.90;63.60;;;;;;6228022;28;20038;-72
2021/10/20 02:36:06;;;;;;;8.82;4.93;;;14.90;63.70;;;;;;6228637;28;20038;-72
2021/10/20 02:39:07;;;;;;;9.38;5.25;;;14.80;63.80;;;;;;6227957;28;20084;-72
2021/10/20 02:42:08;;;;;;;9.70;5.20;;;14.80;64.00;;;;;;6228632;28;20434;-72
2021/10/20 02:45:13;;;;;;;9.20;4.50;;;14.80;64.00;;;;;;6210709;28;20044;-72
2021/10/20 02:48:14;;;;;;;8.10;4.63;;;14.80;64.10;;;;;;6227409;28;20038;-72
2021/10/20 02:51:15;;;;;;;10.30;5.07;;;14.80;64.10;;;;;;6227260;28;20038;-72
2021/10/20 02:54:16;;;;;;;14.18;4.07;;;14.70;64.10;;;;;;6227183;28;20119;-72
2021/10/20 02:57:17;;;;;;;9.75;4.70;;;14.70;64.00;;;;;;6228299;28;20088;-72
2021/10/20 03:00:18;;;;;;;11.65;4.43;;;14.70;64.00;;;;;;6227766;28;20104;-72
2021/10/20 03:03:19;;;;;;;11.35;4.60;;;14.70;64.00;;;;;;6231050;28;20038;-71
2021/10/20 03:06:20;;;;;;;7.05;3.88;;;14.70;63.90;;;;;;6227881;28;20038;-72
2021/10/20 03:09:21;;;;;;;6.80;3.75;;;14.70;64.00;;;;;;6210579;28;20037;-72
2021/10/20 03:12:22;;;;;;;9.07;4.95;;;14.60;64.10;;;;;;6226721;28;20064;-71
2021/10/20 03:15:23;;;;;;;10.48;5.15;;;14.60;64.20;;;;;;6227733;28;20462;-71
2021/10/20 03:18:24;;;;;;;9.75;4.93;;;14.60;64.50;;;;;;6225371;28;20100;-71
2021/10/20 03:21:25;;;;;;;10.57;5.65;;;14.60;64.50;;;;;;6226065;28;20034;-72
2021/10/20 03:24:26;;;;;;;9.85;4.80;;;14.60;64.70;;;;;;6227625;28;20481;-72
2021/10/20 03:27:27;;;;;;;12.38;5.45;;;14.60;64.70;;;;;;6226470;28;20117;-72
2021/10/20 03:30:28;;;;;;;9.00;4.65;;;14.50;64.70;;;;;;6227380;28;20038;-71
2021/10/20 03:33:29;;;;;;;12.27;5.20;;;14.50;64.70;;;;;;6231630;28;20041;-72
2021/10/20 03:36:30;;;;;;;10.38;4.72;;;14.50;64.80;;;;;;6226296;28;20030;-71
2021/10/20 03:39:31;;;;;;;10.45;4.50;;;14.60;64.90;;;;;;6225926;28;20034;-71
2021/10/20 03:42:33;;;;;;;9.57;4.78;;;14.50;64.80;;;;;;6226223;28;20463;-72
2021/10/20 03:45:34;;;;;;;9.05;4.25;;;14.60;64.90;;;;;;6222626;28;20056;-72
2021/10/20 03:48:35;;;;;;;18.30;5.22;;;14.50;64.80;;;;;;6225863;28;20034;-72
2021/10/20 03:51:36;;;;;;;7.65;3.85;;;14.60;64.90;;;;;;6209446;28;20066;-72
2021/10/20 03:54:36;;;;;;;10.30;5.00;;;14.50;64.80;;;;;;6225720;28;20129;-72
2021/10/20 03:57:39;;;;;;;9.15;4.72;;;14.50;64.70;;;;;;6225910;28;20045;-72
2021/10/20 04:00:40;;;;;;;8.15;4.25;;;14.60;64.80;;;;;;6228315;28;20033;-72
2021/10/20 04:03:41;;;;;;;8.40;4.45;;;14.60;64.70;;;;;;6225164;28;20038;-71
2021/10/20 04:06:42;;;;;;;8.40;4.30;;;14.60;64.50;;;;;;6226589;28;20038;-72
2021/10/20 04:09:43;;;;;;;9.75;4.32;;;14.60;64.40;;;;;;6224820;28;20038;-72
2021/10/20 04:12:45;;;;;;;10.00;4.88;;;14.60;64.40;;;;;;6226414;28;20037;-72
2021/10/20 04:15:46;;;;;;;8.70;4.30;;;14.60;64.30;;;;;;6225207;28;20366;-71
2021/10/20 04:18:47;;;;;;;9.82;4.32;;;14.60;64.30;;;;;;6223142;28;20446;-72
2021/10/20 04:21:48;;;;;;;11.18;4.68;;;14.60;64.30;;;;;;6226129;28;20033;-72
2021/10/20 04:24:49;;;;;;;7.10;4.15;;;14.60;64.30;;;;;;6225272;28;20037;-72
2021/10/20 04:27:51;;;;;;;7.82;3.97;;;14.60;64.30;;;;;;6225120;28;20124;-72
2021/10/20 04:30:53;;;;;;;8.18;4.10;;;14.50;64.20;;;;;;6212380;28;20042;-72
2021/10/20 04:33:53;;;;;;;15.07;4.55;;;14.50;64.20;;;;;;6223732;28;20045;-71
2021/10/20 04:36:54;;;;;;;9.00;4.40;;;14.50;64.30;;;;;;6225883;28;20116;-72
2021/10/20 04:39:57;;;;;;;13.70;4.68;;;14.50;64.50;;;;;;6224610;28;20048;-71
2021/10/20 04:42:58;;;;;;;8.45;4.60;;;14.40;64.50;;;;;;6241164;28;20430;-72
2021/10/20 04:45:59;;;;;;;10.70;4.60;;;14.40;64.60;;;;;;6224343;28;20034;-72
2021/10/20 04:49:00;;;;;;;7.78;3.75;;;14.40;64.80;;;;;;6225639;28;20034;-73
2021/10/20 04:52:00;;;;;;;8.95;4.20;;;14.40;64.80;;;;;;6205588;28;20057;-72
2021/10/20 04:55:02;;;;;;;11.00;4.50;;;14.50;64.90;;;;;;6224381;28;20049;-72
2021/10/20 04:58:07;;;;;;;12.30;5.10;;;14.50;64.80;;;;;;6224632;28;20045;-72
2021/10/20 05:01:08;;;;;;;8.25;4.13;;;14.50;64.70;;;;;;6225242;28;20049;-72
2021/10/20 05:04:09;;;;;;;9.38;4.22;;;14.50;64.60;;;;;;6224775;28;20080;-72
2021/10/20 05:07:11;;;;;;;15.85;4.50;;;14.50;64.50;;;;;;6225157;28;20066;-72
2021/10/20 05:10:12;;;;;;;11.02;5.07;;;14.50;64.50;;;;;;6225163;28;20038;-72
2021/10/20 05:13:13;;;;;;;6.75;4.25;;;14.60;64.40;;;;;;6217121;28;20124;-72
2021/10/20 05:16:13;;;;;;;9.20;4.93;;;14.60;64.30;;;;;;6224545;28;20099;-72
2021/10/20 05:19:15;;;;;;;12.13;4.80;;;14.60;64.20;;;;;;6223443;28;20045;-72
2021/10/20 05:22:16;;;;;;;11.90;5.53;;;14.70;64.20;;;;;;6224608;28;20426;-73
2021/10/20 05:25:17;;;;;;;7.55;4.13;;;14.70;64.10;;;;;;6206602;28;20042;-72
2021/10/20 05:28:18;;;;;;;9.10;4.72;;;14.70;64.00;;;;;;6224197;28;20117;-72
2021/10/20 05:31:19;;;;;;;13.02;5.00;;;14.70;64.80;;;;;;6227299;28;20107;-73
2021/10/20 05:34:20;;;;;;;10.43;4.95;;;14.70;63.90;;;;;;6223211;28;20029;-73
2021/10/20 05:37:21;;;;;;;7.47;4.25;;;14.70;63.90;;;;;;6215064;28;20097;-73
2021/10/20 05:40:24;;;;;;;7.63;4.35;;;14.70;63.80;;;;;;6223862;28;20050;-73
2021/10/20 05:43:25;;;;;;;19.67;5.30;;;14.70;63.70;;;;;;6222412;28;20037;-73
2021/10/20 05:46:25;;;;;;;6.22;4.18;;;14.70;63.70;;;;;;6222817;28;20045;-72
2021/10/20 05:49:27;;;;;;;7.80;4.22;;;14.60;63.70;;;;;;6222872;28;20375;-73
2021/10/20 05:52:28;;;;;;;7.78;4.13;;;14.60;63.80;;;;;;6224069;28;20034;-73
2021/10/20 05:55:29;;;;;;;7.43;4.18;;;14.50;63.80;;;;;;6239678;28;20482;-73
2021/10/20 05:58:30;;;;;;;9.93;4.82;;;14.50;63.80;;;;;;6238396;28;20103;-72
2021/10/20 06:01:31;;;;;;;14.00;4.78;;;14.40;64.00;;;;;;6228034;28;20034;-73
2021/10/20 06:04:32;;;;;;;11.02;3.97;;;14.40;64.20;;;;;;6222394;28;20489;-73
2021/10/20 06:07:41;;;;;;;9.43;4.90;;;14.40;64.20;;;;;;6221560;28;20407;-72
2021/10/20 06:10:42;;;;;;;7.18;3.45;;;14.40;64.30;;;;;;6212500;28;20474;-73
2021/10/20 06:13:43;;;;;;;10.48;4.20;;;14.40;64.30;;;;;;6223190;28;20034;-73
2021/10/20 06:16:44;;;;;;;10.63;4.15;;;14.40;64.20;;;;;;6223009;28;20046;-73
2021/10/20 06:19:46;;;;;;;6.47;3.38;;;14.50;64.10;;;;;;6223584;28;20418;-72
2021/10/20 06:22:47;;;;;;;7.13;3.90;;;14.50;63.90;;;;;;6238656;28;20033;-73
2021/10/20 06:25:48;;;;;;;10.10;4.18;;;14.60;63.80;;;;;;6238700;28;20120;-71
2021/10/20 06:28:49;;;;;;;6.80;3.97;;;14.60;63.60;;;;;;6222589;28;20095;-73
2021/10/20 06:31:50;;;;;;;14.23;4.05;;;14.70;64.50;;;;;;6229970;28;20045;-74
2021/10/20 06:34:51;;;;;;;8.30;3.80;;;14.80;63.40;;;;;;6221512;28;20066;-72
2021/10/20 06:37:53;;;;;;;13.68;4.85;;;15.00;63.40;;;;;;6222977;28;20056;-73
2021/10/20 06:40:54;;;;;;;11.05;4.03;;;15.10;63.10;;;;;;6222315;28;20049;-73
2021/10/20 06:43:55;;;;;;;8.57;3.88;;;15.20;62.70;;;;;;6223545;28;20053;-72
2021/10/20 06:46:56;;;;;;;24.60;5.03;;;15.30;62.50;;;;;;6221873;28;20386;-72
2021/10/20 06:49:57;;;;;;;6.15;3.40;;;15.40;62.30;;;;;;6222535;28;20061;-73
2021/10/20 06:52:58;;;;;;;9.20;4.13;;;15.60;62.00;;;;;;6223461;28;20375;-73
2021/10/20 06:56:01;;;;;;;12.52;4.47;;;15.80;61.70;;;;;;6243261;28;20459;-73
2021/10/20 06:59:01;;;;;;;12.70;3.67;;;15.90;61.00;;;;;;6227468;28;20042;-72
2021/10/20 07:02:02;;;;;;;9.32;4.05;;;16.10;60.40;;;;;;6230387;28;20038;-72
2021/10/20 07:05:05;;;;;;;10.55;4.30;;;16.20;59.90;;;;;;6242680;28;20061;-72
2021/10/20 07:08:05;;;;;;;17.45;5.03;;;16.30;59.60;;;;;;6226063;28;20077;-73
2021/10/20 07:11:06;;;;;;;16.25;4.10;;;16.30;59.50;;;;;;6209627;28;20054;-73
2021/10/20 07:14:07;;;;;;;10.10;4.03;;;16.30;59.30;;;;;;6226653;28;20383;-72
2021/10/20 07:17:09;;;;;;;16.75;5.22;;;16.30;59.10;;;;;;6225703;28;20041;-71
2021/10/20 07:20:10;;;;;;;8.98;4.82;;;16.20;59.00;;;;;;6242490;28;20038;-72
2021/10/20 07:23:11;;;;;;;9.43;4.40;;;16.20;59.10;;;;;;6226445;28;20077;-73
2021/10/20 07:26:17;;;;;;;10.77;4.53;;;16.20;59.20;;;;;;6227111;28;20038;-72
2021/10/20 07:29:18;;;;;;;11.45;4.88;;;16.30;59.10;;;;;;6225484;28;20034;-72
2021/10/20 07:32:19;;;;;;;14.80;4.47;;;16.30;59.00;;;;;;6231172;28;20423;-72
2021/10/20 07:35:20;;;;;;;13.07;5.13;;;16.40;58.90;;;;;;6225072;28;20026;-73
2021/10/20 07:38:22;;;;;;;8.50;4.72;;;16.40;58.60;;;;;;6225447;28;20363;-73
2021/10/20 07:41:23;;;;;;;21.40;4.63;;;16.50;58.50;;;;;;6226609;28;20049;-72
2021/10/20 07:44:24;;;;;;;12.43;4.70;;;16.60;58.40;;;;;;6225981;28;20033;-72
2021/10/20 07:47:26;;;;;;;8.75;4.05;;;16.70;58.40;;;;;;6208764;28;20048;-73
2021/10/20 07:50:27;;;;;;;13.52;4.28;;;16.90;58.10;;;;;;6224983;28;20041;-72
2021/10/20 07:53:28;;;;;;;16.20;4.18;;;17.10;57.80;;;;;;6225756;28;20030;-72
2021/10/20 07:56:33;;;;;;;26.63;5.63;;;17.30;57.50;;;;;;6224739;28;20030;-72
2021/10/20 07:59:34;;;;;;;18.75;5.28;;;17.50;57.30;;;;;;6221842;28;20038;-73
2021/10/20 08:02:35;;;;;;;13.63;3.90;;;17.70;57.10;;;;;;6227091;28;20041;-72
2021/10/20 08:05:36;;;;;;;12.68;4.10;;;17.80;56.70;;;;;;6224896;28;20038;-73
2021/10/20 08:08:37;;;;;;;12.65;4.35;;;18.00;56.50;;;;;;6225642;28;20382;-73
2021/10/20 08:11:38;;;;;;;11.63;4.38;;;18.10;56.20;;;;;;6224468;28;20092;-74
2021/10/20 08:14:41;;;;;;;12.23;4.85;;;18.20;56.30;;;;;;6224369;28;20037;-72
2021/10/20 08:17:44;;;;;;;14.77;4.28;;;18.30;56.30;;;;;;6225370;28;20042;-71
2021/10/20 08:20:44;;;;;;;8.43;4.03;;;18.50;56.00;;;;;;6225600;28;20057;-71
2021/10/20 08:23:46;;;;;;;12.38;4.90;;;18.60;55.80;;;;;;6223688;28;20038;-72
2021/10/20 08:26:47;;;;;;;7.82;2.70;;;18.80;55.40;;;;;;6240286;28;20034;-73
2021/10/20 08:29:48;;;;;;;5.13;2.78;;;19.00;55.20;;;;;;6223642;28;20064;-73
2021/10/20 08:32:52;;;;;;;8.27;3.08;;;19.20;54.70;;;;;;6227813;28;20054;-73
2021/10/20 08:35:53;;;;;;;4.07;2.22;;;19.50;54.10;;;;;;6207012;28;20374;-73
2021/10/20 08:38:54;;;;;;;4.50;2.30;;;19.80;53.40;;;;;;6224716;28;20056;-73
2021/10/20 08:41:57;;;;;;;3.45;2.05;;;20.10;52.80;;;;;;6224002;28;20038;-74
2021/10/20 08:44:59;;;;;;;6.10;2.28;;;20.40;51.90;;;;;;6223129;28;20130;-73
2021/10/20 08:48:00;;;;;;;8.43;2.67;;;20.70;51.20;;;;;;6224249;28;20037;-72
2021/10/20 08:51:03;;;;;;;8.63;4.60;;;21.00;50.60;;;;;;6224587;28;20115;-72
2021/10/20 08:54:04;;;;;;;9.15;3.15;;;21.30;50.00;;;;;;6206910;28;20034;-72
2021/10/20 08:57:05;;;;;;;8.55;2.55;;;21.60;49.70;;;;;;6223353;28;20061;-72
2021/10/20 09:00:08;;;;;;;5.40;2.00;;;21.90;49.30;;;;;;6222850;28;20071;-73
2021/10/20 09:03:18;;;;;;;4.85;2.13;;;22.10;48.80;;;;;;6223094;28;20463;-73
2021/10/20 09:06:18;;;;;;;3.05;1.67;;;22.30;47.80;;;;;;6220864;28;20392;-73
2021/10/20 09:09:19;;;;;;;2.75;1.50;;;22.60;47.20;;;;;;6222524;28;20026;-72
2021/10/20 09:12:26;;;;;;;2.97;1.48;;;22.80;45.60;;;;;;6223712;28;20401;-72
2021/10/20 09:15:32;;;;;;;2.95;1.70;;;23.00;45.20;;;;;;6221648;28;20041;-72
2021/10/20 09:18:37;;;;;;;3.40;1.55;;;23.10;44.30;;;;;;6222502;28;20403;-72
2021/10/20 09:21:58;;;;;;;10.40;1.98;;;23.30;44.00;;;;;;6222641;28;20184;-72
2021/10/20 09:25:02;;;;;;;2.20;1.48;;;23.50;43.10;;;;;;6223423;28;20034;-72
2021/10/20 09:28:06;;;;;;;4.88;1.88;;;23.60;42.30;;;;;;6222134;28;20037;-72
2021/10/20 09:31:08;;;;;;;2.65;1.50;;;23.70;42.10;;;;;;6226187;28;20048;-73
2021/10/20 09:34:10;;;;;;;2.92;1.40;;;23.90;41.50;;;;;;6221187;28;20467;-73
2021/10/20 09:37:11;;;;;;;2.78;1.52;;;24.10;40.90;;;;;;6223321;28;20045;-73
2021/10/20 09:40:13;;;;;;;3.08;1.45;;;24.20;40.80;;;;;;6223270;28;20038;-73
2021/10/20 09:43:18;;;;;;;3.80;1.38;;;24.30;40.40;;;;;;6222719;28;20033;-73
2021/10/20 09:46:42;;;;;;;6.88;1.65;;;24.40;40.40;;;;;;6222964;28;20026;-73
2021/10/20 09:49:56;;;;;;;5.05;1.15;;;24.50;39.70;;;;;;6219939;28;20034;-73
2021/10/20 09:52:57;;;;;;;5.20;1.15;;;24.50;39.30;;;;;;6220721;28;20060;-72
2021/10/20 09:56:18;;;;;;;6.78;1.23;;;24.70;38.90;;;;;;6220019;28;20074;-73
2021/10/20 09:59:20;;;;;;;2.03;1.05;;;24.70;38.80;;;;;;6234199;28;20510;-74
2021/10/20 10:02:21;;;;;;;3.95;1.40;;;24.90;37.80;;;;;;6219250;28;20034;-74
2021/10/20 10:05:22;;;;;;;7.97;1.33;;;25.20;37.20;;;;;;6221796;28;20043;-73
2021/10/20 10:08:23;;;;;;;2.15;1.30;;;25.50;36.40;;;;;;6219135;28;20038;-74
2021/10/20 10:11:25;;;;;;;3.83;1.13;;;25.70;36.70;;;;;;6219500;28;20041;-74
2021/10/20 10:14:30;;;;;;;1.00;0.90;;;26.00;34.70;;;;;;6220950;28;20486;-72
2021/10/20 10:17:33;;;;;;;1.35;1.02;;;26.00;34.00;;;;;;6216721;28;20129;-72
2021/10/20 10:20:40;;;;;;;2.65;1.17;;;26.10;33.80;;;;;;6220201;28;20042;-73
2021/10/20 10:23:55;;;;;;;4.47;1.33;;;26.20;34.10;;;;;;6213820;28;20034;-73
2021/10/20 10:27:01;;;;;;;4.85;1.27;;;26.30;33.70;;;;;;6214850;28;20041;-73
2021/10/20 10:30:16;;;;;;;2.30;1.23;;;26.30;33.20;;;;;;6224005;28;20053;-72
2021/10/20 10:33:24;;;;;;;1.48;0.90;;;26.30;32.80;;;;;;6227303;28;20072;-74
2021/10/20 10:36:25;;;;;;;2.13;1.67;;;26.30;32.50;;;;;;6225731;28;20030;-73
2021/10/20 10:39:32;;;;;;;1.95;1.38;;;26.30;32.50;;;;;;6225703;28;20050;-74
2021/10/20 10:42:35;;;;;;;1.95;0.95;;;26.40;32.60;;;;;;6220495;28;20044;-73
2021/10/20 10:45:37;;;;;;;1.33;1.05;;;26.50;32.30;;;;;;6226409;28;20116;-74
2021/10/20 10:48:40;;;;;;;1.42;1.13;;;26.60;32.70;;;;;;6226111;28;20374;-73
2021/10/20 10:51:42;;;;;;;4.82;1.10;;;26.80;32.70;;;;;;6224836;28;20357;-73
2021/10/20 10:54:59;;;;;;;4.07;1.42;;;27.00;32.40;;;;;;6225651;28;20371;-72
2021/10/20 10:58:16;;;;;;;2.37;1.30;;;27.30;31.90;;;;;;6225901;28;20486;-72
2021/10/20 11:01:36;;;;;;;6.20;1.25;;;27.40;31.90;;;;;;6224115;28;20269;-74
2021/10/20 11:04:37;;;;;;;1.10;1.05;;;27.50;31.30;;;;;;6221249;28;20069;-75
2021/10/20 11:07:38;;;;;;;2.95;1.30;;;27.80;31.10;;;;;;6220800;28;20041;-75
2021/10/20 11:10:41;;;;;;;5.45;1.13;;;28.10;30.60;;;;;;6223197;28;20100;-73
2021/10/20 11:13:42;;;;;;;2.50;1.60;;;28.30;29.80;;;;;;6221324;28;20136;-73
2021/10/20 11:17:06;;;;;;;4.20;1.38;;;28.60;29.80;;;;;;6219894;28;20034;-73
2021/10/20 11:20:09;;;;;;;3.83;1.33;;;28.70;29.30;;;;;;6222661;28;20030;-74
2021/10/20 11:23:17;;;;;;;1.35;1.10;;;28.90;28.70;;;;;;6221859;28;20124;-73
2021/10/20 11:26:18;;;;;;;1.77;1.00;;;29.00;28.50;;;;;;6204183;28;20050;-72
2021/10/20 11:29:19;;;;;;;5.00;1.35;;;29.10;28.40;;;;;;6222472;28;20029;-73
2021/10/20 11:32:22;;;;;;;2.38;1.20;;;29.40;28.40;;;;;;6221247;28;20037;-73
2021/10/20 11:35:28;;;;;;;7.97;0.90;;;29.90;28.00;;;;;;6222991;28;20033;-73
2021/10/20 11:38:35;;;;;;;1.70;0.90;;;30.60;27.30;;;;;;6219723;28;20050;-74
2021/10/20 11:41:36;;;;;;;2.97;1.20;;;31.00;26.30;;;;;;6204877;28;20483;-73
2021/10/20 11:44:39;;;;;;;1.05;0.70;;;31.20;26.10;;;;;;6222704;28;20038;-73
2021/10/20 11:47:42;;;;;;;1.40;1.13;;;31.30;25.80;;;;;;6205205;28;20040;-74
2021/10/20 11:50:48;;;;;;;1.05;0.90;;;31.40;25.60;;;;;;6221895;28;20030;-74
2021/10/20 11:53:49;;;;;;;2.47;1.23;;;31.60;25.40;;;;;;6222724;28;20105;-73
2021/10/20 11:56:55;;;;;;;1.98;1.02;;;31.80;25.40;;;;;;6223465;28;20372;-72
2021/10/20 11:59:57;;;;;;;1.40;0.77;;;32.10;24.80;;;;;;6223984;28;20022;-73
2021/10/20 12:02:59;;;;;;;5.03;1.10;;;32.30;24.70;;;;;;6225056;28;20029;-73
2021/10/20 12:06:03;;;;;;;1.83;1.13;;;32.70;24.70;;;;;;6223316;28;20056;-73
2021/10/20 12:09:05;;;;;;;4.20;0.85;;;33.00;24.10;;;;;;6224009;28;20126;-73
2021/10/20 12:12:07;;;;;;;1.58;1.00;;;33.20;24.10;;;;;;6223227;28;20041;-73
2021/10/20 12:15:16;;;;;;;4.13;1.10;;;33.70;24.10;;;;;;6221595;28;20029;-73
2021/10/20 12:18:18;;;;;;;2.25;1.10;;;34.00;23.70;;;;;;6223659;28;20042;-73
2021/10/20 12:21:19;;;;;;;2.60;1.05;;;34.40;23.40;;;;;;6222410;28;20085;-74
2021/10/20 12:24:22;;;;;;;4.55;1.10;;;34.50;23.30;;;;;;6221175;28;20034;-74
2021/10/20 12:27:24;;;;;;;5.28;1.20;;;34.50;22.80;;;;;;6237763;28;20041;-73
2021/10/20 12:30:28;;;;;;;2.00;1.23;;;34.20;23.40;;;;;;6221479;28;20521;-74
2021/10/20 12:33:28;;;;;;;2.70;1.00;;;33.40;23.50;;;;;;6210784;28;20048;-72
2021/10/20 12:36:31;;;;;;;3.30;1.30;;;32.60;24.00;;;;;;6237878;28;20126;-73
2021/10/20 12:39:32;;;;;;;3.55;1.35;;;31.90;24.70;;;;;;6222522;28;20098;-73
2021/10/20 12:42:43;;;;;;;2.03;1.15;;;31.20;25.30;;;;;;6222208;28;20410;-73
2021/10/20 12:45:49;;;;;;;3.03;0.80;;;30.50;25.80;;;;;;6222712;28;20522;-72
2021/10/20 12:48:52;;;;;;;1.73;0.90;;;30.10;26.30;;;;;;6222106;28;20041;-73
2021/10/20 12:51:57;;;;;;;3.10;1.20;;;29.60;26.70;;;;;;6221886;28;20061;-73
2021/10/20 12:55:00;;;;;;;1.48;0.90;;;29.20;27.20;;;;;;6221938;28;20117;-73
2021/10/20 12:58:01;;;;;;;2.67;1.00;;;28.90;27.50;;;;;;6221225;28;20045;-73
2021/10/20 13:01:04;;;;;;;2.80;1.08;;;28.40;34.60;;;;;;6222812;28;20041;-73
2021/10/20 13:04:08;;;;;;;2.95;1.45;;;27.50;38.10;;;;;;6223197;28;20037;-73
2021/10/20 13:07:09;;;;;;;1.77;1.20;;;26.90;38.20;;;;;;6221697;28;20045;-73
2021/10/20 13:10:18;;;;;;;2.88;1.27;;;26.50;39.70;;;;;;6221633;28;20447;-73
2021/10/20 13:13:20;;;;;;;3.50;1.10;;;26.30;40.60;;;;;;6204898;28;20042;-72
2021/10/20 13:16:21;;;;;;;7.32;1.00;;;26.20;40.00;;;;;;6219936;28;20034;-73
2021/10/20 13:19:22;;;;;;;3.00;1.00;;;26.20;40.70;;;;;;6220596;28;20064;-74
2021/10/20 13:22:23;;;;;;;1.17;0.95;;;26.10;40.80;;;;;;6222494;28;20367;-73
2021/10/20 13:25:24;;;;;;;3.72;1.00;;;26.10;41.20;;;;;;6221174;28;20064;-74
2021/10/20 13:28:25;;;;;;;2.10;1.52;;;26.10;40.70;;;;;;6221342;28;20084;-72
2021/10/20 13:31:26;;;;;;;2.42;1.23;;;26.10;39.70;;;;;;6221267;28;20160;-73
2021/10/20 13:34:27;;;;;;;5.22;1.40;;;26.10;39.50;;;;;;6222711;28;20467;-72
2021/10/20 13:37:29;;;;;;;3.03;1.00;;;26.10;39.20;;;;;;6222238;28;20058;-72
2021/10/20 13:40:30;;;;;;;3.22;1.52;;;26.10;38.80;;;;;;6220890;28;20140;-73
2021/10/20 13:43:31;;;;;;;1.25;1.08;;;26.10;40.00;;;;;;6217796;28;20052;-72
2021/10/20 13:46:33;;;;;;;2.97;1.60;;;26.00;39.70;;;;;;6237159;28;20068;-72
2021/10/20 13:49:34;;;;;;;1.35;0.93;;;26.00;40.50;;;;;;6237470;28;20033;-72
2021/10/20 13:52:35;;;;;;;1.73;1.08;;;25.90;40.90;;;;;;6237155;28;20038;-73
2021/10/20 13:55:38;;;;;;;6.78;1.85;;;25.90;40.10;;;;;;6219201;28;20408;-73
2021/10/20 13:58:39;;;;;;;3.50;1.30;;;25.80;39.00;;;;;;6203635;28;20053;-73
2021/10/20 14:01:43;;;;;;;1.38;0.88;;;25.80;38.10;;;;;;6220559;28;20037;-73
2021/10/20 14:04:44;;;;;;;1.73;1.20;;;25.70;37.10;;;;;;6221631;28;20052;-73
2021/10/20 14:07:44;;;;;;;1.83;1.13;;;25.70;37.10;;;;;;6219777;28;20447;-73
2021/10/20 14:10:45;;;;;;;2.15;0.98;;;25.70;37.40;;;;;;6221042;28;20042;-73
2021/10/20 14:13:46;;;;;;;1.25;0.73;;;25.60;36.20;;;;;;6220805;28;20037;-74
2021/10/20 14:16:49;;;;;;;3.85;1.00;;;25.60;35.90;;;;;;6221254;28;20044;-73
2021/10/20 14:19:50;;;;;;;5.85;1.33;;;25.70;35.50;;;;;;6219190;28;20120;-73
2021/10/20 14:22:51;;;;;;;2.17;1.20;;;25.70;35.20;;;;;;6201325;28;20063;-74
2021/10/20 14:25:52;;;;;;;2.92;1.23;;;25.70;35.10;;;;;;6220284;28;20038;-73
2021/10/20 14:28:53;;;;;;;2.05;1.58;;;25.70;35.00;;;;;;6203344;28;20034;-73
2021/10/20 14:31:54;;;;;;;1.20;0.95;;;25.70;35.10;;;;;;6235990;28;20141;-73
2021/10/20 14:34:55;;;;;;;3.70;1.30;;;25.70;35.00;;;;;;6222874;28;20030;-74
2021/10/20 14:37:57;;;;;;;1.55;1.23;;;25.70;35.30;;;;;;6221090;28;20479;-73
2021/10/20 14:41:00;;;;;;;1.88;1.30;;;25.80;35.30;;;;;;6219760;28;20117;-74
2021/10/20 14:44:02;;;;;;;2.47;0.98;;;25.80;35.10;;;;;;6203483;28;20037;-73
2021/10/20 14:47:03;;;;;;;3.58;1.30;;;25.80;34.90;;;;;;6221235;28;20164;-71
2021/10/20 14:50:06;;;;;;;2.15;1.05;;;25.80;34.70;;;;;;6220117;28;20045;-72
2021/10/20 14:53:08;;;;;;;3.63;1.48;;;25.80;34.10;;;;;;6221705;28;20056;-72
2021/10/20 14:56:10;;;;;;;3.72;1.20;;;25.80;34.20;;;;;;6220462;28;20030;-72
2021/10/20 14:59:11;;;;;;;4.25;1.30;;;25.80;34.00;;;;;;6220448;28;20041;-72
2021/10/20 15:02:13;;;;;;;1.25;1.00;;;25.80;34.10;;;;;;6219690;28;20096;-73
2021/10/20 15:05:14;;;;;;;1.15;1.05;;;25.80;33.90;;;;;;6242735;28;20045;-73
2021/10/20 15:08:15;;;;;;;2.60;1.27;;;25.80;33.80;;;;;;6220689;28;20420;-74
2021/10/20 15:11:18;;;;;;;2.17;1.05;;;25.80;33.90;;;;;;6221473;28;20046;-74
2021/10/20 15:14:19;;;;;;;1.27;1.10;;;25.70;34.10;;;;;;6222630;28;20029;-72
2021/10/20 15:17:20;;;;;;;1.65;1.08;;;25.80;34.40;;;;;;6224616;28;20042;-73
2021/10/20 15:20:24;;;;;;;2.53;1.10;;;25.70;34.40;;;;;;6225784;28;20132;-72
2021/10/20 15:23:25;;;;;;;2.05;1.20;;;25.70;34.40;;;;;;6225511;28;20026;-72
2021/10/20 15:26:26;;;;;;;2.60;1.10;;;25.60;34.50;;;;;;6225888;28;20364;-72
2021/10/20 15:29:27;;;;;;;2.08;1.50;;;25.60;34.60;;;;;;6225387;28;20041;-72
2021/10/20 15:32:28;;;;;;;4.22;1.38;;;25.60;34.90;;;;;;6240701;28;20034;-73
2021/10/20 15:35:30;;;;;;;8.40;1.67;;;25.60;35.70;;;;;;6225480;28;20050;-73
2021/10/20 15:38:30;;;;;;;6.93;1.70;;;25.50;36.80;;;;;;6231679;28;20115;-72
2021/10/20 15:41:35;;;;;;;10.88;2.13;;;25.30;37.60;;;;;;6241104;28;20080;-73
2021/10/20 15:44:36;;;;;;;12.82;2.20;;;25.10;38.70;;;;;;6240519;28;20066;-73